createdAt,value
2022-08-12T00:01:14.138Z,1017.01
2022-08-12T00:06:21.313Z,1017.06
2022-08-12T00:11:28.572Z,1017.11
2022-08-12T00:16:35.768Z,1017.10
2022-08-12T00:21:42.962Z,1016.98
2022-08-12T00:26:50.177Z,1016.98
2022-08-12T00:31:57.336Z,1016.94
2022-08-12T00:37:13.097Z,1016.96
2022-08-12T00:42:11.851Z,1016.91
2022-08-12T00:47:24.669Z,1016.85
2022-08-12T00:52:26.144Z,1016.83
2022-08-12T00:57:33.388Z,1016.95
2022-08-12T01:02:40.916Z,1017.03
2022-08-12T01:07:47.785Z,1016.99
2022-08-12T01:12:55.021Z,1016.95
2022-08-12T01:18:02.298Z,1016.90
2022-08-12T01:23:09.483Z,1016.86
2022-08-12T01:28:16.677Z,1016.82
2022-08-12T01:33:23.938Z,1016.78
2022-08-12T01:38:31.134Z,1016.81
2022-08-12T01:43:38.308Z,1016.84
2022-08-12T01:48:45.506Z,1016.88
2022-08-12T01:53:52.757Z,1016.80
2022-08-12T01:58:59.980Z,1016.79
2022-08-12T02:04:07.184Z,1016.78
2022-08-12T02:09:14.433Z,1016.79
2022-08-12T02:14:21.639Z,1016.83
2022-08-12T02:19:28.897Z,1016.78
2022-08-12T02:24:36.125Z,1016.74
2022-08-12T02:29:43.403Z,1016.67
2022-08-12T02:34:50.605Z,1016.65
2022-08-12T02:39:59.792Z,1016.61
2022-08-12T02:45:06.951Z,1016.57
2022-08-12T02:50:14.113Z,1016.59
2022-08-12T02:55:28.741Z,1016.53
2022-08-12T03:00:28.558Z,1016.52
2022-08-12T03:05:44.231Z,1016.61
2022-08-12T03:10:42.989Z,1016.58
2022-08-12T03:15:50.185Z,1016.56
2022-08-12T03:20:57.339Z,1016.59
2022-08-12T03:26:04.534Z,1016.64
2022-08-12T03:31:11.709Z,1016.66
2022-08-12T03:36:18.898Z,1016.66
2022-08-12T03:41:26.098Z,1016.66
2022-08-12T03:46:33.416Z,1016.67
2022-08-12T03:51:40.660Z,1016.66
2022-08-12T03:56:47.877Z,1016.76
2022-08-12T04:01:55.143Z,1016.76
2022-08-12T04:07:02.400Z,1016.72
2022-08-12T04:12:09.822Z,1016.76
2022-08-12T04:17:17.002Z,1016.81
2022-08-12T04:22:24.243Z,1016.70
2022-08-12T04:27:32.210Z,1016.63
2022-08-12T04:32:44.136Z,1016.68
2022-08-12T04:37:59.813Z,1016.70
2022-08-12T04:42:53.323Z,1016.72
2022-08-12T04:48:00.515Z,1016.71
2022-08-12T04:53:08.588Z,1016.75
2022-08-12T04:58:15.040Z,1016.79
2022-08-12T05:03:22.066Z,1016.79
2022-08-12T05:08:29.319Z,1016.81
2022-08-12T05:13:36.523Z,1016.79
2022-08-12T05:18:45.764Z,1016.78
2022-08-12T05:23:51.003Z,1016.80
2022-08-12T05:28:58.219Z,1016.79
2022-08-12T05:34:05.475Z,1016.83
2022-08-12T05:39:12.808Z,1016.89
2022-08-12T05:44:19.933Z,1016.80
2022-08-12T05:49:27.135Z,1016.84
2022-08-12T05:54:54.720Z,1016.86
2022-08-12T05:59:41.593Z,1016.91
2022-08-12T06:04:48.785Z,1016.88
2022-08-12T06:09:55.960Z,1016.89
2022-08-12T06:15:03.178Z,1016.90
2022-08-12T06:20:27.147Z,1016.93
2022-08-12T06:25:19.199Z,1016.96
2022-08-12T06:30:36.887Z,1016.97
2022-08-12T06:35:49.254Z,1016.98
2022-08-12T06:40:39.294Z,1016.97
2022-08-12T06:45:47.107Z,1017.03
2022-08-12T06:50:53.718Z,1016.93
2022-08-12T06:56:00.959Z,1016.93
2022-08-12T07:01:08.397Z,1016.87
2022-08-12T07:06:15.527Z,1016.87
2022-08-12T07:11:22.766Z,1016.90
2022-08-12T07:16:29.993Z,1016.93
2022-08-12T07:21:59.824Z,1016.95
2022-08-12T07:26:44.541Z,1016.90
2022-08-12T07:31:51.808Z,1016.87
2022-08-12T07:36:59.056Z,1016.88
2022-08-12T07:42:06.312Z,1016.84
2022-08-12T07:47:13.588Z,1016.86
2022-08-12T07:52:20.783Z,1016.81
2022-08-12T07:57:27.974Z,1016.86
2022-08-12T08:02:35.215Z,1016.84
2022-08-12T08:07:42.428Z,1016.82
2022-08-12T08:12:49.604Z,1016.77
2022-08-12T08:17:56.789Z,1016.72
2022-08-12T08:23:04.006Z,1016.70
2022-08-12T08:28:11.213Z,1016.61
2022-08-12T08:33:23.759Z,1016.65
2022-08-12T08:38:32.177Z,1016.71
2022-08-12T08:43:44.186Z,1016.76
2022-08-12T08:48:40.110Z,1016.77
2022-08-12T08:53:48.322Z,1016.72
2022-08-12T08:58:54.437Z,1016.71
2022-08-12T09:05:09.417Z,1016.65
2022-08-12T09:09:13.376Z,1016.62
2022-08-12T09:14:19.117Z,1016.68
2022-08-12T09:24:30.526Z,1016.61
2022-08-12T09:30:11.490Z,1016.60
2022-08-12T09:34:50.720Z,1016.54
2022-08-12T09:40:05.533Z,1016.50
2022-08-12T09:45:18.473Z,1016.45
2022-08-12T09:50:06.535Z,1016.38
2022-08-12T09:56:06.219Z,1016.25
2022-08-12T10:00:28.390Z,1016.24
2022-08-12T10:06:26.176Z,1016.15
2022-08-12T10:10:40.342Z,1016.13
2022-08-12T10:16:00.796Z,1016.09
2022-08-12T10:20:49.809Z,1016.08
2022-08-12T10:26:34.882Z,1016.03
2022-08-12T10:31:04.990Z,1015.95
2022-08-12T10:36:11.500Z,1015.91
2022-08-12T10:41:21.111Z,1015.90
2022-08-12T10:46:31.348Z,1015.85
2022-08-12T10:52:02.931Z,1015.82
2022-08-12T10:56:41.146Z,1015.76
2022-08-12T11:04:17.430Z,1015.76
2022-08-12T11:07:06.106Z,1015.76
2022-08-12T11:12:34.643Z,1015.68
2022-08-12T11:17:34.857Z,1015.62
2022-08-12T11:22:18.157Z,1015.57
2022-08-12T11:27:24.429Z,1015.49
2022-08-12T11:32:31.596Z,1015.48
2022-08-12T11:37:59.122Z,1015.51
2022-08-12T11:42:47.225Z,1015.39
2022-08-12T11:47:55.637Z,1015.27
2022-08-12T11:53:01.489Z,1015.33
2022-08-12T12:00:20.555Z,1015.30
2022-08-12T12:03:17.361Z,1015.22
2022-08-12T12:08:37.945Z,1015.24
2022-08-12T12:14:08.553Z,1015.24
2022-08-12T12:18:37.496Z,1015.18
2022-08-12T12:23:44.737Z,1015.17
2022-08-12T12:28:54.218Z,1015.18
2022-08-12T12:33:59.195Z,1015.17
2022-08-12T12:39:06.625Z,1015.07
2022-08-12T12:44:13.614Z,1015.06
2022-08-12T12:49:20.815Z,1014.98
2022-08-12T12:54:28.997Z,1014.96
2022-08-12T12:59:56.997Z,1014.93
2022-08-12T13:04:42.525Z,1014.94
2022-08-12T13:09:50.615Z,1014.87
2022-08-12T13:14:57.787Z,1014.88
2022-08-12T13:20:05.082Z,1014.83
2022-08-12T13:25:12.283Z,1014.81
2022-08-12T13:30:19.535Z,1014.78
2022-08-12T13:35:33.584Z,1014.79
2022-08-12T13:40:33.985Z,1014.73
2022-08-12T13:45:41.185Z,1014.79
2022-08-12T13:50:48.416Z,1014.78
2022-08-12T13:56:01.616Z,1014.75
2022-08-12T14:01:02.911Z,1014.66
2022-08-12T14:06:10.204Z,1014.63
2022-08-12T14:11:17.447Z,1014.69
2022-08-12T14:16:46.882Z,1014.75
2022-08-12T14:21:31.862Z,1014.61
2022-08-12T14:26:39.160Z,1014.58
2022-08-12T14:31:46.195Z,1014.58
2022-08-12T14:36:53.438Z,1014.60
2022-08-12T14:42:00.603Z,1014.57
2022-08-12T14:47:08.667Z,1014.58
2022-08-12T14:52:55.558Z,1014.77
2022-08-12T14:57:23.901Z,1014.76
2022-08-12T15:02:29.436Z,1014.85
2022-08-12T15:07:52.260Z,1014.85
2022-08-12T15:12:43.882Z,1014.90
2022-08-12T15:17:51.354Z,1014.86
2022-08-12T15:22:58.389Z,1014.78
2022-08-12T15:28:06.169Z,1014.80
2022-08-12T15:33:18.756Z,1014.80
2022-08-12T15:38:20.184Z,1014.84
2022-08-12T15:43:51.199Z,1014.80
2022-08-12T15:48:34.392Z,1014.78
2022-08-12T15:53:41.594Z,1014.71
2022-08-12T15:58:48.757Z,1014.77
2022-08-12T16:03:59.971Z,1014.78
2022-08-12T16:09:03.232Z,1014.82
2022-08-12T16:14:10.555Z,1014.83
2022-08-12T16:19:19.072Z,1014.74
2022-08-12T16:24:24.824Z,1014.76
2022-08-12T16:29:52.474Z,1014.68
2022-08-12T16:34:54.476Z,1014.69
2022-08-12T16:40:00.359Z,1014.71
2022-08-12T16:44:53.748Z,1014.63
2022-08-12T16:50:00.934Z,1014.70
2022-08-12T16:55:08.128Z,1014.67
2022-08-12T17:00:15.370Z,1014.69
2022-08-12T17:05:22.646Z,1014.68
2022-08-12T17:10:35.842Z,1014.67
2022-08-12T17:15:56.769Z,1014.66
2022-08-12T17:20:44.483Z,1014.70
2022-08-12T17:25:51.558Z,1014.68
2022-08-12T17:31:00.240Z,1014.67
2022-08-12T17:36:06.008Z,1014.69
2022-08-12T17:41:23.299Z,1014.70
2022-08-12T17:46:24.045Z,1014.72
2022-08-12T17:51:31.649Z,1014.74
2022-08-12T17:56:34.888Z,1014.81
2022-08-12T18:01:42.179Z,1014.81
2022-08-12T18:06:50.653Z,1014.81
2022-08-12T18:12:04.643Z,1014.80
2022-08-12T18:17:04.038Z,1014.85
2022-08-12T18:22:11.287Z,1014.94
2022-08-12T18:27:29.760Z,1014.93
2022-08-12T18:32:44.043Z,1014.94
2022-08-12T18:37:42.122Z,1014.95
2022-08-12T18:42:40.374Z,1014.93
2022-08-12T18:47:51.855Z,1014.95
2022-08-12T18:52:54.891Z,1014.99
2022-08-12T18:58:06.741Z,1015.01
2022-08-12T19:03:38.654Z,1015.02
2022-08-12T19:08:16.553Z,1014.99
2022-08-12T19:13:25.151Z,1015.01
2022-08-12T19:18:32.960Z,1014.99
2022-08-12T19:23:38.924Z,1015.05
2022-08-12T19:28:46.286Z,1015.05
2022-08-12T19:34:25.516Z,1015.12
2022-08-12T19:39:01.055Z,1015.15
2022-08-12T19:44:18.426Z,1015.14
2022-08-12T19:49:16.044Z,1015.12
2022-08-12T19:54:23.593Z,1015.14
2022-08-12T19:59:42.990Z,1015.10
2022-08-12T20:04:38.323Z,1015.14
2022-08-12T20:09:45.582Z,1015.17
2022-08-12T20:14:52.850Z,1015.13
2022-08-12T20:20:16.885Z,1015.13
2022-08-12T20:25:07.484Z,1015.17
2022-08-12T20:30:14.623Z,1015.16
2022-08-12T20:35:24.664Z,1015.12
2022-08-12T20:40:29.183Z,1015.24
2022-08-12T20:45:44.984Z,1015.27
2022-08-12T20:50:47.640Z,1015.26
2022-08-12T20:55:56.783Z,1015.30
2022-08-12T21:00:57.857Z,1015.31
2022-08-12T21:06:11.780Z,1015.30
2022-08-12T21:11:12.247Z,1015.25
2022-08-12T21:16:35.943Z,1015.31
2022-08-12T21:21:46.881Z,1015.37
2022-08-12T21:26:33.818Z,1015.38
2022-08-12T21:32:39.613Z,1015.37
2022-08-12T21:36:49.498Z,1015.33
2022-08-12T21:41:55.390Z,1015.35
2022-08-12T21:47:02.628Z,1015.35
2022-08-12T21:52:09.859Z,1015.40
2022-08-12T21:57:17.127Z,1015.41
2022-08-12T22:02:24.409Z,1015.43
2022-08-12T22:07:31.588Z,1015.46
2022-08-12T22:12:38.783Z,1015.46
2022-08-12T22:17:50.504Z,1015.49
2022-08-12T22:22:55.898Z,1015.43
2022-08-12T22:28:00.477Z,1015.47
2022-08-12T22:33:07.989Z,1015.41
2022-08-12T22:38:17.265Z,1015.45
2022-08-12T22:43:22.078Z,1015.38
2022-08-12T22:48:30.727Z,1015.29
2022-08-12T22:53:36.755Z,1015.26
2022-08-12T22:58:43.686Z,1015.21
2022-08-12T23:03:53.989Z,1015.19
2022-08-12T23:08:58.097Z,1015.20
2022-08-12T23:14:05.326Z,1015.13
2022-08-12T23:19:17.921Z,1015.08
2022-08-12T23:24:19.725Z,1015.01
2022-08-12T23:29:43.452Z,1014.93
2022-08-12T23:34:34.112Z,1014.98
2022-08-12T23:40:13.261Z,1015.00
2022-08-12T23:44:52.326Z,1015.00
2022-08-12T23:49:59.764Z,1014.96
2022-08-12T23:55:23.227Z,1015.04
